createdAt,value
2022-08-11T00:02:35.692Z,2.03
2022-08-11T00:07:46.237Z,1.70
2022-08-11T00:12:55.193Z,2.08
2022-08-11T00:18:02.017Z,1.65
2022-08-11T00:23:09.437Z,1.85
2022-08-11T00:28:27.092Z,1.85
2022-08-11T00:33:44.436Z,1.73
2022-08-11T00:38:52.889Z,1.65
2022-08-11T00:44:24.175Z,1.75
2022-08-11T00:49:42.046Z,1.63
2022-08-11T00:55:22.066Z,1.50
2022-08-11T01:00:27.440Z,1.70
2022-08-11T01:05:49.874Z,1.40
2022-08-11T01:11:16.594Z,1.50
2022-08-11T01:16:48.593Z,1.50
2022-08-11T01:22:40.113Z,1.60
2022-08-11T01:28:18.403Z,1.25
2022-08-11T01:34:14.403Z,1.70
2022-08-11T01:40:11.178Z,1.45
2022-08-11T01:45:28.559Z,1.48
2022-08-11T01:50:58.697Z,1.50
2022-08-11T01:56:14.998Z,1.70
2022-08-11T02:01:51.113Z,1.70
2022-08-11T02:07:02.029Z,1.38
2022-08-11T02:12:16.151Z,1.50
2022-08-11T02:17:36.711Z,1.60
2022-08-11T02:22:50.316Z,1.60
2022-08-11T02:28:02.024Z,1.23
2022-08-11T02:33:17.133Z,1.70
2022-08-11T02:38:29.086Z,1.77
2022-08-11T02:43:47.930Z,1.65
2022-08-11T02:49:19.114Z,1.50
2022-08-11T02:54:30.438Z,1.67
2022-08-11T02:59:47.902Z,1.50
2022-08-11T03:05:03.817Z,1.30
2022-08-11T03:10:14.130Z,1.63
2022-08-11T03:15:23.405Z,1.60
2022-08-11T03:20:39.506Z,1.50
2022-08-11T03:25:52.601Z,1.52
2022-08-11T03:31:07.612Z,1.50
2022-08-11T03:36:23.891Z,1.52
2022-08-11T03:42:02.241Z,1.20
2022-08-11T03:47:23.296Z,1.83
2022-08-11T03:52:43.326Z,1.50
2022-08-11T03:58:30.911Z,1.27
2022-08-11T04:04:10.946Z,1.50
2022-08-11T04:09:57.160Z,1.73
2022-08-11T04:15:25.745Z,1.60
2022-08-11T04:20:51.039Z,1.60
2022-08-11T04:26:22.296Z,1.35
2022-08-11T04:31:53.681Z,2.35
2022-08-11T04:37:20.804Z,1.52
2022-08-11T04:43:13.308Z,1.30
2022-08-11T04:48:48.890Z,1.98
2022-08-11T04:54:01.461Z,1.33
2022-08-11T04:59:39.083Z,1.75
2022-08-11T05:04:57.770Z,1.30
2022-08-11T05:10:17.696Z,1.40
2022-08-11T05:15:32.637Z,1.77
2022-08-11T05:20:51.699Z,1.50
2022-08-11T05:26:45.040Z,1.40
2022-08-11T05:31:31.862Z,1.30
2022-08-11T05:36:46.394Z,1.30
2022-08-11T05:41:50.753Z,1.30
2022-08-11T05:46:56.721Z,1.27
2022-08-11T05:52:05.608Z,1.65
2022-08-11T05:57:39.618Z,1.20
2022-08-11T06:02:52.072Z,1.60
2022-08-11T06:07:57.242Z,1.60
2022-08-11T06:13:01.951Z,1.60
2022-08-11T06:18:12.066Z,1.20
2022-08-11T06:23:17.425Z,1.55
2022-08-11T06:33:36.655Z,1.40
2022-08-11T06:38:55.439Z,1.67
2022-08-11T06:44:09.900Z,1.70
2022-08-11T06:49:17.245Z,1.73
2022-08-11T06:54:22.875Z,1.30
2022-08-11T06:59:27.735Z,1.70
2022-08-11T07:04:36.865Z,2.07
2022-08-11T07:10:06.671Z,1.80
2022-08-11T07:15:13.058Z,1.80
2022-08-11T07:20:19.462Z,1.88
2022-08-11T07:25:24.347Z,1.80
2022-08-11T07:30:28.475Z,1.80
2022-08-11T07:35:37.528Z,1.70
2022-08-11T07:40:43.471Z,2.05
2022-08-11T07:45:47.695Z,1.60
2022-08-11T07:50:56.110Z,1.80
2022-08-11T07:56:02.248Z,1.83
2022-08-11T08:01:10.238Z,1.90
2022-08-11T08:06:35.641Z,1.90
2022-08-11T08:11:41.506Z,2.08
2022-08-11T08:16:45.401Z,1.83
2022-08-11T08:21:51.293Z,2.00
2022-08-11T08:26:55.630Z,1.85
2022-08-11T08:31:59.498Z,1.73
2022-08-11T08:37:15.804Z,1.75
2022-08-11T08:42:32.720Z,2.15
2022-08-11T08:47:43.097Z,2.05
2022-08-11T08:52:55.264Z,1.92
2022-08-11T08:58:01.315Z,2.00
2022-08-11T09:03:22.802Z,2.00
2022-08-11T09:08:32.528Z,2.38
2022-08-11T09:13:37.217Z,2.10
2022-08-11T09:18:43.142Z,1.80
2022-08-11T09:29:14.485Z,2.10
2022-08-11T09:34:18.403Z,2.45
2022-08-11T09:39:24.053Z,2.10
2022-08-11T09:49:33.091Z,2.10
2022-08-11T09:54:39.053Z,2.10
2022-08-11T09:59:42.866Z,2.30
2022-08-11T10:04:47.570Z,2.10
2022-08-11T10:09:56.939Z,2.30
2022-08-11T10:15:06.387Z,2.38
2022-08-11T10:20:11.798Z,2.15
2022-08-11T10:25:19.861Z,2.40
2022-08-11T10:30:27.269Z,2.63
2022-08-11T10:40:39.715Z,2.28
2022-08-11T10:45:46.246Z,2.60
2022-08-11T10:50:51.668Z,2.50
2022-08-11T10:55:58.705Z,2.15
2022-08-11T11:01:04.003Z,2.42
2022-08-11T11:06:28.265Z,2.40
2022-08-11T11:11:38.469Z,2.20
2022-08-11T11:16:43.412Z,2.60
2022-08-11T11:21:49.001Z,2.60
2022-08-11T11:26:57.895Z,2.40
2022-08-11T11:32:17.231Z,2.50
2022-08-11T11:37:21.805Z,2.70
2022-08-11T11:42:28.165Z,2.50
2022-08-11T11:47:33.441Z,2.85
2022-08-11T11:52:39.001Z,2.60
2022-08-11T11:57:58.629Z,2.53
2022-08-11T12:03:07.643Z,2.28
2022-08-11T12:08:13.405Z,2.53
2022-08-11T12:18:23.163Z,2.25
2022-08-11T12:23:26.902Z,2.60
2022-08-11T12:28:32.749Z,2.40
2022-08-11T12:38:51.599Z,2.40
2022-08-11T12:44:00.332Z,2.30
2022-08-11T12:49:10.644Z,2.60
2022-08-11T12:54:17.998Z,2.40
2022-08-11T12:59:24.098Z,2.40
2022-08-11T13:04:28.467Z,2.50
2022-08-11T13:09:32.535Z,2.60
2022-08-11T13:14:37.850Z,2.70
2022-08-11T13:19:47.455Z,2.60
2022-08-11T13:24:55.002Z,2.25
2022-08-11T13:30:00.568Z,2.80
2022-08-11T13:35:04.526Z,2.60
2022-08-11T13:40:13.469Z,2.47
2022-08-11T13:45:20.485Z,2.40
2022-08-11T13:50:25.170Z,2.53
2022-08-11T13:55:51.910Z,2.38
2022-08-11T14:00:55.251Z,2.50
2022-08-11T14:06:04.819Z,2.60
2022-08-11T14:12:20.042Z,2.90
2022-08-11T14:16:41.502Z,2.78
2022-08-11T14:21:45.941Z,2.45
2022-08-11T14:26:58.223Z,2.80
2022-08-11T14:32:05.462Z,2.75
2022-08-11T14:37:11.570Z,2.65
2022-08-11T14:42:17.888Z,2.40
2022-08-11T14:47:25.638Z,2.70
2022-08-11T14:52:32.503Z,2.70
2022-08-11T14:57:56.347Z,2.20
2022-08-11T15:03:03.652Z,2.20
2022-08-11T15:08:07.885Z,2.10
2022-08-11T15:13:12.992Z,2.35
2022-08-11T15:18:21.259Z,2.03
2022-08-11T15:23:25.025Z,2.40
2022-08-11T15:28:31.991Z,2.10
2022-08-11T15:33:39.603Z,1.80
2022-08-11T15:38:48.030Z,2.00
2022-08-11T15:43:55.453Z,1.70
2022-08-11T15:49:04.548Z,1.70
2022-08-11T15:54:11.237Z,2.10
2022-08-11T15:59:42.488Z,2.53
2022-08-11T16:04:45.147Z,2.00
2022-08-11T16:09:54.958Z,1.90
2022-08-11T16:15:05.776Z,2.20
2022-08-11T16:20:15.104Z,1.83
2022-08-11T16:27:05.819Z,1.92
2022-08-11T16:30:46.874Z,2.38
2022-08-11T16:35:53.080Z,1.80
2022-08-11T16:40:58.604Z,1.80
2022-08-11T16:46:04.708Z,1.80
2022-08-11T16:51:12.827Z,2.00
2022-08-11T16:56:20.600Z,1.90
2022-08-11T17:01:26.311Z,1.90
2022-08-11T17:06:33.274Z,1.70
2022-08-11T17:11:41.526Z,1.80
2022-08-11T17:16:47.613Z,2.00
2022-08-11T17:21:54.142Z,1.70
2022-08-11T17:27:02.617Z,1.80
2022-08-11T17:32:08.746Z,1.70
2022-08-11T17:37:14.990Z,2.20
2022-08-11T17:42:19.966Z,2.20
2022-08-11T17:47:25.726Z,2.05
2022-08-11T17:52:35.238Z,2.50
2022-08-11T17:57:44.378Z,3.20
2022-08-11T18:02:52.223Z,2.65
2022-08-11T18:08:00.271Z,2.85
2022-08-11T18:13:05.434Z,2.70
2022-08-11T18:18:09.062Z,2.53
2022-08-11T18:23:19.781Z,2.63
2022-08-11T18:28:27.286Z,2.40
2022-08-11T18:34:03.924Z,2.30
2022-08-11T18:39:06.574Z,2.40
2022-08-11T18:44:11.096Z,2.70
2022-08-11T18:54:24.075Z,2.42
2022-08-11T18:59:31.199Z,2.70
2022-08-11T19:04:37.863Z,2.30
2022-08-11T19:09:45.129Z,2.35
2022-08-11T19:14:53.405Z,2.72
2022-08-11T19:19:58.728Z,2.47
2022-08-11T19:25:06.432Z,2.45
2022-08-11T19:30:13.992Z,2.30
2022-08-11T19:35:18.399Z,2.60
2022-08-11T19:40:24.682Z,2.55
2022-08-11T19:45:28.980Z,2.58
2022-08-11T19:55:40.327Z,2.43
2022-08-11T20:00:45.195Z,2.40
2022-08-11T20:05:59.389Z,2.50
2022-08-11T20:11:07.702Z,2.20
2022-08-11T20:16:13.363Z,2.00
2022-08-11T20:21:25.517Z,2.20
2022-08-11T20:26:38.914Z,2.17
2022-08-11T20:31:43.459Z,2.10
2022-08-11T20:36:52.517Z,1.90
2022-08-11T20:42:00.920Z,1.80
2022-08-11T20:47:05.204Z,1.60
2022-08-11T20:52:18.144Z,1.40
2022-08-11T20:57:54.415Z,1.60
2022-08-11T21:02:50.097Z,1.52
2022-08-11T21:07:56.712Z,1.58
2022-08-11T21:13:25.209Z,1.58
2022-08-11T21:18:32.019Z,1.60
2022-08-11T21:23:41.130Z,1.60
2022-08-11T21:28:47.966Z,2.05
2022-08-11T21:33:52.357Z,1.80
2022-08-11T21:38:56.115Z,1.30
2022-08-11T21:44:02.955Z,1.40
2022-08-11T21:49:09.637Z,1.55
2022-08-11T21:54:18.336Z,1.27
2022-08-11T21:59:32.553Z,1.70
2022-08-11T22:04:37.544Z,1.55
2022-08-11T22:09:41.301Z,1.40
2022-08-11T22:14:47.179Z,1.20
2022-08-11T22:19:52.130Z,1.50
2022-08-11T22:24:55.823Z,1.50
2022-08-11T22:30:02.971Z,1.40
2022-08-11T22:35:08.956Z,1.60
2022-08-11T22:40:13.396Z,1.17
2022-08-11T22:45:18.946Z,1.20
2022-08-11T22:50:23.038Z,1.42
2022-08-11T22:55:27.957Z,2.00
2022-08-11T23:00:34.288Z,1.42
2022-08-11T23:05:39.030Z,1.60
2022-08-11T23:10:43.556Z,1.35
2022-08-11T23:15:49.055Z,1.42
2022-08-11T23:20:58.661Z,1.55
2022-08-11T23:26:03.986Z,1.45
2022-08-11T23:31:12.234Z,1.30
2022-08-11T23:36:36.063Z,1.20
2022-08-11T23:41:43.211Z,1.27
2022-08-11T23:46:50.106Z,1.35
2022-08-11T23:51:54.165Z,1.45
